createdAt,value
2024-02-13T00:00:53.070Z,98573.86
2024-02-13T00:03:54.205Z,98578.79
2024-02-13T00:06:56.789Z,98585.23
2024-02-13T00:09:57.800Z,98588.34
2024-02-13T00:13:01.644Z,98592.30
2024-02-13T00:16:03.937Z,98597.84
2024-02-13T00:19:07.827Z,98601.23
2024-02-13T00:22:12.676Z,98602.08
2024-02-13T00:25:14.013Z,98606.52
2024-02-13T00:28:14.985Z,98606.34
2024-02-13T00:31:15.954Z,98607.45
2024-02-13T00:34:20.207Z,98612.00
2024-02-13T00:37:23.822Z,98612.48
2024-02-13T00:40:24.871Z,98614.64
2024-02-13T00:43:27.251Z,98615.77
2024-02-13T00:46:30.032Z,98616.63
2024-02-13T00:49:31.127Z,98617.59
2024-02-13T00:52:32.950Z,98621.42
2024-02-13T00:55:33.876Z,98623.32
2024-02-13T00:58:36.668Z,98622.51
2024-02-13T01:01:38.268Z,98627.13
2024-02-13T01:04:39.193Z,98630.39
2024-02-13T01:07:40.529Z,98635.02
2024-02-13T01:10:41.991Z,98641.00
2024-02-13T01:13:43.068Z,98643.79
2024-02-13T01:16:44.995Z,98643.82
2024-02-13T01:19:47.736Z,98645.61
2024-02-13T01:22:48.759Z,98648.11
2024-02-13T01:25:49.738Z,98652.01
2024-02-13T01:28:50.704Z,98651.80
2024-02-13T01:31:52.498Z,98646.42
2024-02-13T01:34:53.912Z,98652.56
2024-02-13T01:37:57.075Z,98653.75
2024-02-13T01:40:58.636Z,98658.28
2024-02-13T01:44:00.965Z,98656.23
2024-02-13T01:47:02.868Z,98660.02
2024-02-13T01:50:07.064Z,98659.64
2024-02-13T01:53:08.113Z,98660.86
2024-02-13T01:56:10.488Z,98660.36
2024-02-13T01:59:14.922Z,98659.64
2024-02-13T02:02:16.181Z,98658.33
2024-02-13T02:05:17.697Z,98658.66
2024-02-13T02:08:19.244Z,98657.92
2024-02-13T02:11:20.522Z,98661.54
2024-02-13T02:14:22.789Z,98658.23
2024-02-13T02:17:23.934Z,98665.11
2024-02-13T02:20:25.095Z,98667.60
2024-02-13T02:23:27.260Z,98666.80
2024-02-13T02:26:28.373Z,98666.33
2024-02-13T02:29:31.548Z,98668.64
2024-02-13T02:32:33.086Z,98666.04
2024-02-13T02:35:34.349Z,98671.88
2024-02-13T02:38:38.907Z,98674.33
2024-02-13T02:41:40.019Z,98675.36
2024-02-13T02:44:42.018Z,98678.52
2024-02-13T02:47:43.587Z,98676.65
2024-02-13T02:50:44.764Z,98679.42
2024-02-13T02:53:45.752Z,98683.59
2024-02-13T02:56:46.821Z,98690.63
2024-02-13T02:59:48.109Z,98691.10
2024-02-13T03:02:49.494Z,98691.46
2024-02-13T03:05:52.148Z,98695.08
2024-02-13T03:08:53.255Z,98699.88
2024-02-13T03:11:54.307Z,98707.37
2024-02-13T03:14:56.637Z,98710.52
2024-02-13T03:17:58.449Z,98710.97
2024-02-13T03:20:59.690Z,98713.61
2024-02-13T03:24:00.644Z,98715.06
2024-02-13T03:27:02.367Z,98721.42
2024-02-13T03:30:03.982Z,98725.63
2024-02-13T03:33:05.120Z,98722.43
2024-02-13T03:36:06.571Z,98726.80
2024-02-13T03:39:07.622Z,98730.59
2024-02-13T03:42:09.490Z,98732.38
2024-02-13T03:45:11.313Z,98741.94
2024-02-13T03:48:12.421Z,98742.27
2024-02-13T03:51:13.943Z,98741.49
2024-02-13T03:54:14.980Z,98744.44
2024-02-13T03:57:15.949Z,98750.38
2024-02-13T04:00:18.198Z,98751.98
2024-02-13T04:03:19.129Z,98758.67
2024-02-13T04:06:20.540Z,98762.41
2024-02-13T04:09:21.659Z,98767.54
2024-02-13T04:12:22.946Z,98765.25
2024-02-13T04:15:23.897Z,98773.69
2024-02-13T04:18:25.069Z,98773.23
2024-02-13T04:21:26.105Z,98776.99
2024-02-13T04:24:27.085Z,98781.57
2024-02-13T04:27:28.106Z,98783.20
2024-02-13T04:30:29.056Z,98786.91
2024-02-13T04:33:30.135Z,98790.13
2024-02-13T04:36:32.286Z,98795.32
2024-02-13T04:39:33.307Z,98790.23
2024-02-13T04:42:35.973Z,98798.45
2024-02-13T04:45:37.165Z,98805.48
2024-02-13T04:48:38.254Z,98800.09
2024-02-13T04:51:39.399Z,98807.50
2024-02-13T04:54:40.365Z,98809.80
2024-02-13T04:57:41.288Z,98810.52
2024-02-13T05:00:51.768Z,98813.39
2024-02-13T05:03:55.424Z,98816.98
2024-02-13T05:07:15.036Z,98814.77
2024-02-13T05:10:16.152Z,98818.08
2024-02-13T05:13:18.637Z,98819.02
2024-02-13T05:16:19.551Z,98819.60
2024-02-13T05:19:21.728Z,98826.15
2024-02-13T05:22:22.774Z,98827.86
2024-02-13T05:25:23.714Z,98834.34
2024-02-13T05:28:24.732Z,98836.40
2024-02-13T05:31:26.012Z,98842.64
2024-02-13T05:34:27.040Z,98847.93
2024-02-13T05:37:28.318Z,98854.70
2024-02-13T05:40:29.872Z,98858.83
2024-02-13T05:43:31.044Z,98863.19
2024-02-13T05:46:32.259Z,98873.96
2024-02-13T05:49:34.270Z,98877.67
2024-02-13T05:52:36.489Z,98878.77
2024-02-13T05:55:37.690Z,98883.88
2024-02-13T05:58:39.416Z,98887.52
2024-02-13T06:01:40.415Z,98892.08
2024-02-13T06:04:42.454Z,98894.71
2024-02-13T06:07:44.679Z,98896.56
2024-02-13T06:10:45.759Z,98900.40
2024-02-13T06:13:47.098Z,98907.33
2024-02-13T06:16:48.071Z,98911.77
2024-02-13T06:19:49.204Z,98912.70
2024-02-13T06:22:50.316Z,98919.36
2024-02-13T06:25:51.296Z,98926.04
2024-02-13T06:28:52.868Z,98929.80
2024-02-13T06:31:55.591Z,98935.31
2024-02-13T06:34:56.760Z,98936.71
2024-02-13T06:37:59.816Z,98940.72
2024-02-13T06:41:01.325Z,98945.98
2024-02-13T06:44:03.860Z,98949.48
2024-02-13T06:47:07.523Z,98949.16
2024-02-13T06:50:12.753Z,98956.54
2024-02-13T06:53:14.273Z,98960.54
2024-02-13T06:56:16.669Z,98962.91
2024-02-13T06:59:17.840Z,98969.72
2024-02-13T07:02:19.029Z,98969.52
2024-02-13T07:05:20.280Z,98973.71
2024-02-13T07:08:21.520Z,98974.06
2024-02-13T07:11:22.811Z,98973.03
2024-02-13T07:14:25.621Z,98975.59
2024-02-13T07:17:27.978Z,98982.30
2024-02-13T07:20:29.285Z,98982.17
2024-02-13T07:23:30.636Z,98982.78
2024-02-13T07:26:31.654Z,98989.55
2024-02-13T07:29:33.003Z,98990.33
2024-02-13T07:32:34.876Z,98992.49
2024-02-13T07:35:36.594Z,98994.23
2024-02-13T07:38:37.598Z,98993.10
2024-02-13T07:41:38.702Z,98998.42
2024-02-13T07:44:39.855Z,98999.52
2024-02-13T07:47:42.080Z,98999.33
2024-02-13T07:50:43.082Z,99001.63
2024-02-13T07:53:44.558Z,99004.63
2024-02-13T07:56:46.420Z,99006.73
2024-02-13T07:59:47.522Z,99008.52
2024-02-13T08:02:49.954Z,99017.89
2024-02-13T08:05:51.656Z,99026.52
2024-02-13T08:08:52.872Z,99034.02
2024-02-13T08:11:54.574Z,99032.55
2024-02-13T08:14:55.720Z,99033.81
2024-02-13T08:17:57.522Z,99040.69
2024-02-13T08:20:59.591Z,99041.05
2024-02-13T08:24:00.748Z,99044.95
2024-02-13T08:27:02.250Z,99056.83
2024-02-13T08:30:10.409Z,99063.09
2024-02-13T08:33:11.693Z,99066.08
2024-02-13T08:36:12.850Z,99072.73
2024-02-13T08:39:13.822Z,99071.93
2024-02-13T08:42:14.750Z,99074.73
2024-02-13T08:45:15.861Z,99079.90
2024-02-13T08:48:17.177Z,99075.81
2024-02-13T08:51:25.627Z,99077.20
2024-02-13T08:54:26.584Z,99085.15
2024-02-13T08:57:27.575Z,99083.48
2024-02-13T09:00:29.620Z,99085.89
2024-02-13T09:03:30.571Z,99085.05
2024-02-13T09:06:32.751Z,99090.55
2024-02-13T09:09:35.314Z,99100.36
2024-02-13T09:12:36.313Z,99103.94
2024-02-13T09:15:37.292Z,99112.20
2024-02-13T09:18:38.918Z,99117.11
2024-02-13T09:21:40.800Z,99121.66
2024-02-13T09:24:44.625Z,99126.38
2024-02-13T09:27:48.635Z,99133.83
2024-02-13T09:30:51.022Z,99134.81
2024-02-13T09:33:52.088Z,99135.08
2024-02-13T09:36:53.194Z,99137.47
2024-02-13T09:39:55.671Z,99139.29
2024-02-13T09:42:56.741Z,99141.67
2024-02-13T09:45:57.700Z,99142.15
2024-02-13T09:48:59.968Z,99144.25
2024-02-13T09:52:07.947Z,99147.36
2024-02-13T09:55:10.061Z,99150.45
2024-02-13T09:58:11.789Z,99157.17
2024-02-13T10:01:13.584Z,99161.77
2024-02-13T10:04:14.899Z,99163.20
2024-02-13T10:07:15.988Z,99166.92
2024-02-13T10:10:17.032Z,99172.91
2024-02-13T10:13:18.615Z,99173.20
2024-02-13T10:16:24.114Z,99176.78
2024-02-13T10:19:28.467Z,99171.89
2024-02-13T10:22:31.099Z,99178.63
2024-02-13T10:25:33.584Z,99180.59
2024-02-13T10:28:35.001Z,99186.57
2024-02-13T10:31:36.585Z,99184.84
2024-02-13T10:34:38.634Z,99189.36
2024-02-13T10:37:40.303Z,99179.91
2024-02-13T10:40:43.918Z,99184.88
2024-02-13T10:43:47.191Z,99182.21
2024-02-13T10:46:49.679Z,99185.11
2024-02-13T10:49:54.648Z,99186.45
2024-02-13T10:52:55.831Z,99190.73
2024-02-13T10:55:58.361Z,99197.36
2024-02-13T10:58:59.522Z,99196.75
2024-02-13T11:02:02.406Z,99200.11
2024-02-13T11:05:09.673Z,99204.33
2024-02-13T11:08:13.884Z,99206.20
2024-02-13T11:11:17.301Z,99203.20
2024-02-13T11:14:22.772Z,99203.16
2024-02-13T11:17:32.186Z,99202.77
2024-02-13T11:20:38.384Z,99210.03
2024-02-13T11:23:50.186Z,99208.63
2024-02-13T11:26:51.256Z,99205.30
2024-02-13T11:30:24.086Z,99205.77
2024-02-13T11:33:25.162Z,99208.36
2024-02-13T11:36:30.152Z,99208.90
2024-02-13T11:39:31.472Z,99211.76
2024-02-13T11:42:35.941Z,99221.91
2024-02-13T11:45:36.900Z,99217.60
2024-02-13T11:48:40.213Z,99215.11
2024-02-13T11:51:42.495Z,99215.75
2024-02-13T11:54:50.985Z,99219.05
2024-02-13T11:57:51.969Z,99220.52
2024-02-13T12:01:01.312Z,99221.58
2024-02-13T12:04:02.488Z,99221.89
2024-02-13T12:07:04.358Z,99225.41
2024-02-13T12:10:07.678Z,99230.47
2024-02-13T12:13:12.201Z,99228.88
2024-02-13T12:16:15.144Z,99227.75
2024-02-13T12:19:17.613Z,99231.77
2024-02-13T12:22:18.956Z,99231.86
2024-02-13T12:25:20.310Z,99228.11
2024-02-13T12:28:21.974Z,99233.36
2024-02-13T12:31:23.828Z,99234.23
2024-02-13T12:34:26.325Z,99238.59
2024-02-13T12:37:31.644Z,99243.89
2024-02-13T12:40:33.319Z,99245.67
2024-02-13T12:43:34.346Z,99252.71
2024-02-13T12:46:37.540Z,99254.80
2024-02-13T12:49:39.482Z,99261.31
2024-02-13T12:52:40.585Z,99265.36
2024-02-13T12:55:54.082Z,99270.55
2024-02-13T12:58:55.038Z,99272.05
2024-02-13T13:01:59.546Z,99273.40
2024-02-13T13:05:02.800Z,99274.33
2024-02-13T13:08:05.617Z,99288.02
2024-02-13T13:11:06.628Z,99289.48
2024-02-13T13:14:08.885Z,99296.33
2024-02-13T13:17:11.924Z,99297.38
2024-02-13T13:20:18.626Z,99304.10
2024-02-13T13:23:21.308Z,99306.92
2024-02-13T13:26:24.339Z,99312.66
2024-02-13T13:29:25.374Z,99320.77
2024-02-13T13:32:27.020Z,99320.89
2024-02-13T13:35:29.752Z,99326.08
2024-02-13T13:38:31.127Z,99333.13
2024-02-13T13:41:33.563Z,99336.12
2024-02-13T13:44:34.748Z,99345.17
2024-02-13T13:47:35.762Z,99339.95
2024-02-13T13:50:39.738Z,99343.76
2024-02-13T13:53:40.917Z,99346.13
2024-02-13T13:56:42.131Z,99349.75
2024-02-13T13:59:43.302Z,99361.52
2024-02-13T14:02:44.379Z,99357.17
2024-02-13T14:05:45.691Z,99360.30
2024-02-13T14:08:46.890Z,99362.84
2024-02-13T14:11:47.984Z,99365.34
2024-02-13T14:14:49.194Z,99368.42
2024-02-13T14:17:50.291Z,99370.58
2024-02-13T14:20:53.074Z,99376.69
2024-02-13T14:23:57.505Z,99377.94
2024-02-13T14:26:58.668Z,99382.52
2024-02-13T14:29:59.828Z,99391.06
2024-02-13T14:33:07.565Z,99395.88
2024-02-13T14:36:09.090Z,99393.50
2024-02-13T14:39:17.341Z,99392.56
2024-02-13T14:42:18.522Z,99398.87
2024-02-13T14:45:20.866Z,99401.72
2024-02-13T14:48:21.934Z,99405.13
2024-02-13T14:51:23.096Z,99408.60
2024-02-13T14:54:24.118Z,99410.41
2024-02-13T14:57:25.120Z,99416.15
2024-02-13T15:00:27.486Z,99423.61
2024-02-13T15:03:28.581Z,99427.39
2024-02-13T15:06:30.094Z,99429.13
2024-02-13T15:09:31.310Z,99430.56
2024-02-13T15:12:32.322Z,99432.20
2024-02-13T15:15:34.257Z,99433.10
2024-02-13T15:18:37.386Z,99437.48
2024-02-13T15:21:38.428Z,99441.25
2024-02-13T15:24:40.119Z,99444.04
2024-02-13T15:27:41.070Z,99453.41
2024-02-13T15:30:42.031Z,99466.48
2024-02-13T15:33:43.370Z,99467.23
2024-02-13T15:37:02.439Z,99462.88
2024-02-13T15:40:23.430Z,99468.96
2024-02-13T15:43:42.936Z,99474.00
2024-02-13T15:46:59.010Z,99472.14
2024-02-13T15:50:01.970Z,99484.30
2024-02-13T15:53:03.694Z,99482.33
2024-02-13T15:56:06.412Z,99490.28
2024-02-13T15:59:10.099Z,99497.05
2024-02-13T16:02:11.372Z,99495.48
2024-02-13T16:05:15.540Z,99503.64
2024-02-13T16:08:16.485Z,99511.58
2024-02-13T16:11:18.242Z,99514.35
2024-02-13T16:14:19.446Z,99522.55
2024-02-13T16:17:21.436Z,99523.64
2024-02-13T16:20:22.728Z,99531.84
2024-02-13T16:23:23.937Z,99537.33
2024-02-13T16:26:27.500Z,99541.52
2024-02-13T16:29:29.121Z,99543.36
2024-02-13T16:32:36.218Z,99549.38
2024-02-13T16:35:41.382Z,99557.29
2024-02-13T16:38:43.202Z,99562.17
2024-02-13T16:41:49.583Z,99564.80
2024-02-13T16:44:51.678Z,99571.06
2024-02-13T16:47:52.813Z,99573.92
2024-02-13T16:50:53.915Z,99575.90
2024-02-13T16:53:55.101Z,99575.11
2024-02-13T16:56:59.321Z,99578.96
2024-02-13T17:00:03.517Z,99584.41
2024-02-13T17:03:04.979Z,99590.62
2024-02-13T17:06:08.881Z,99596.36
2024-02-13T17:09:10.713Z,99603.52
2024-02-13T17:12:12.672Z,99616.36
2024-02-13T17:15:14.071Z,99621.63
2024-02-13T17:18:15.762Z,99615.30
2024-02-13T17:21:17.355Z,99613.80
2024-02-13T17:24:18.456Z,99614.08
2024-02-13T17:27:19.494Z,99617.80
2024-02-13T17:30:20.586Z,99619.52
2024-02-13T17:33:21.704Z,99619.66
2024-02-13T17:36:23.310Z,99617.86
2024-02-13T17:39:24.241Z,99615.66
2024-02-13T17:42:25.449Z,99620.55
2024-02-13T17:45:26.591Z,99620.20
2024-02-13T17:48:27.957Z,99625.73
2024-02-13T17:51:28.998Z,99628.20
2024-02-13T17:54:29.963Z,99629.20
2024-02-13T17:57:30.901Z,99634.83
2024-02-13T18:00:35.692Z,99638.31
2024-02-13T18:03:37.002Z,99637.64
2024-02-13T18:06:38.340Z,99645.23
2024-02-13T18:09:39.344Z,99645.70
2024-02-13T18:12:43.465Z,99646.34
2024-02-13T18:15:46.760Z,99648.20
2024-02-13T18:18:48.076Z,99648.27
2024-02-13T18:21:50.090Z,99654.36
2024-02-13T18:24:51.187Z,99656.73
2024-02-13T18:27:52.795Z,99659.05
2024-02-13T18:30:53.756Z,99663.44
2024-02-13T18:33:55.002Z,99666.20
2024-02-13T18:36:56.565Z,99674.27
2024-02-13T18:39:57.521Z,99675.96
2024-02-13T18:42:58.528Z,99676.02
2024-02-13T18:45:59.822Z,99677.30
2024-02-13T18:49:00.989Z,99684.29
2024-02-13T18:52:02.272Z,99690.68
2024-02-13T18:55:10.393Z,99691.20
2024-02-13T18:58:11.628Z,99698.05
2024-02-13T19:01:12.716Z,99699.96
2024-02-13T19:04:13.716Z,99702.39
2024-02-13T19:07:14.797Z,99703.81
2024-02-13T19:10:15.793Z,99708.04
2024-02-13T19:13:16.805Z,99709.91
2024-02-13T19:16:17.750Z,99713.59
2024-02-13T19:19:18.841Z,99715.80
2024-02-13T19:22:19.831Z,99719.81
2024-02-13T19:25:20.925Z,99720.52
2024-02-13T19:28:22.831Z,99722.73
2024-02-13T19:31:25.017Z,99724.45
2024-02-13T19:34:28.269Z,99727.92
2024-02-13T19:37:31.177Z,99730.99
2024-02-13T19:40:32.516Z,99731.79
2024-02-13T19:43:33.513Z,99735.73
2024-02-13T19:46:34.632Z,99740.38
2024-02-13T19:49:36.404Z,99744.27
2024-02-13T19:52:37.463Z,99747.88
2024-02-13T19:55:38.724Z,99752.21
2024-02-13T19:58:39.737Z,99753.70
2024-02-13T20:01:40.816Z,99761.38
2024-02-13T20:04:42.037Z,99763.70
2024-02-13T20:07:43.327Z,99762.38
2024-02-13T20:10:45.597Z,99764.48
2024-02-13T20:13:47.013Z,99772.80
2024-02-13T20:16:48.366Z,99769.86
2024-02-13T20:19:49.383Z,99771.33
2024-02-13T20:22:50.461Z,99774.15
2024-02-13T20:25:51.953Z,99780.60
2024-02-13T20:28:52.948Z,99780.89
2024-02-13T20:31:54.519Z,99783.62
2024-02-13T20:34:55.914Z,99787.50
2024-02-13T20:37:58.375Z,99790.48
2024-02-13T20:40:59.458Z,99792.87
2024-02-13T20:44:00.906Z,99797.16
2024-02-13T20:47:01.864Z,99795.42
2024-02-13T20:50:07.585Z,99800.04
2024-02-13T20:53:08.577Z,99804.43
2024-02-13T20:56:09.569Z,99805.55
2024-02-13T20:59:10.804Z,99807.77
2024-02-13T21:02:13.275Z,99811.84
2024-02-13T21:05:14.316Z,99812.83
2024-02-13T21:08:15.301Z,99816.77
2024-02-13T21:11:17.374Z,99821.52
2024-02-13T21:14:18.384Z,99823.31
2024-02-13T21:17:19.425Z,99823.48
2024-02-13T21:20:27.807Z,99825.98
2024-02-13T21:23:47.624Z,99827.00
2024-02-13T21:26:49.480Z,99835.95
2024-02-13T21:29:50.939Z,99838.80
2024-02-13T21:32:52.046Z,99838.95
2024-02-13T21:35:53.127Z,99842.23
2024-02-13T21:38:54.231Z,99841.23
2024-02-13T21:41:55.234Z,99840.41
2024-02-13T21:44:58.639Z,99850.58
2024-02-13T21:48:01.638Z,99847.33
2024-02-13T21:51:02.844Z,99850.64
2024-02-13T21:54:05.418Z,99850.18
2024-02-13T21:57:07.104Z,99849.14
2024-02-13T22:00:09.379Z,99859.14
2024-02-13T22:03:10.539Z,99864.11
2024-02-13T22:06:12.692Z,99867.94
2024-02-13T22:09:13.940Z,99868.98
2024-02-13T22:12:14.889Z,99872.91
2024-02-13T22:15:19.197Z,99873.58
2024-02-13T22:18:26.186Z,99875.80
2024-02-13T22:21:27.977Z,99876.83
2024-02-13T22:24:30.834Z,99873.34
2024-02-13T22:27:31.907Z,99874.28
2024-02-13T22:30:33.880Z,99873.98
2024-02-13T22:33:35.357Z,99879.28
2024-02-13T22:36:36.566Z,99881.71
2024-02-13T22:39:37.588Z,99883.85
2024-02-13T22:42:38.545Z,99885.52
2024-02-13T22:45:39.550Z,99883.31
2024-02-13T22:48:40.727Z,99885.48
2024-02-13T22:51:45.008Z,99888.55
2024-02-13T22:54:46.554Z,99885.36
2024-02-13T22:57:47.655Z,99885.84
2024-02-13T23:00:57.547Z,99886.75
2024-02-13T23:04:00.873Z,99891.23
2024-02-13T23:07:01.991Z,99889.10
2024-02-13T23:10:04.586Z,99892.40
2024-02-13T23:13:05.576Z,99890.59
2024-02-13T23:16:08.011Z,99894.34
2024-02-13T23:19:10.889Z,99895.59
2024-02-13T23:22:13.949Z,99897.05
2024-02-13T23:25:15.190Z,99900.52
2024-02-13T23:28:16.933Z,99902.40
2024-02-13T23:31:19.427Z,99904.46
2024-02-13T23:34:20.539Z,99908.48
2024-02-13T23:37:21.610Z,99907.05
2024-02-13T23:40:22.566Z,99909.63
2024-02-13T23:43:23.567Z,99913.45
2024-02-13T23:46:25.699Z,99907.25
2024-02-13T23:49:27.426Z,99912.66
2024-02-13T23:52:28.436Z,99915.93
2024-02-13T23:55:29.456Z,99917.89
2024-02-13T23:58:32.763Z,99919.71
